sensor_id;sensor_type;location;lat;lon;timestamp;temperature;humidity
56538;DHT22;42435;53.292;6.000;2023-04-03T00:01:57;3.70;70.80
56538;DHT22;42435;53.292;6.000;2023-04-03T00:04:22;3.70;70.70
56538;DHT22;42435;53.292;6.000;2023-04-03T00:06:48;3.70;70.60
56538;DHT22;42435;53.292;6.000;2023-04-03T00:09:13;3.60;70.60
56538;DHT22;42435;53.292;6.000;2023-04-03T00:11:39;3.60;70.60
56538;DHT22;42435;53.292;6.000;2023-04-03T00:14:04;3.60;70.60
56538;DHT22;42435;53.292;6.000;2023-04-03T00:16:31;3.50;70.50
56538;DHT22;42435;53.292;6.000;2023-04-03T00:19:00;3.50;70.50
56538;DHT22;42435;53.292;6.000;2023-04-03T00:21:26;3.50;70.50
56538;DHT22;42435;53.292;6.000;2023-04-03T00:23:52;3.40;70.40
56538;DHT22;42435;53.292;6.000;2023-04-03T00:26:18;3.40;70.40
56538;DHT22;42435;53.292;6.000;2023-04-03T00:28:43;3.40;70.40
56538;DHT22;42435;53.292;6.000;2023-04-03T00:31:09;3.40;70.30
56538;DHT22;42435;53.292;6.000;2023-04-03T00:33:35;3.30;70.30
56538;DHT22;42435;53.292;6.000;2023-04-03T00:36:06;3.30;70.30
56538;DHT22;42435;53.292;6.000;2023-04-03T00:38:34;3.30;70.30
56538;DHT22;42435;53.292;6.000;2023-04-03T00:41:00;3.30;70.30
56538;DHT22;42435;53.292;6.000;2023-04-03T00:43:26;3.30;70.30
56538;DHT22;42435;53.292;6.000;2023-04-03T00:45:56;3.30;70.30
56538;DHT22;42435;53.292;6.000;2023-04-03T00:48:32;3.30;70.20
56538;DHT22;42435;53.292;6.000;2023-04-03T00:50:59;3.30;70.30
56538;DHT22;42435;53.292;6.000;2023-04-03T00:53:33;3.20;70.30
56538;DHT22;42435;53.292;6.000;2023-04-03T00:56:00;3.20;70.40
56538;DHT22;42435;53.292;6.000;2023-04-03T00:58:33;3.20;70.40
56538;DHT22;42435;53.292;6.000;2023-04-03T01:01:05;3.10;70.50
56538;DHT22;42435;53.292;6.000;2023-04-03T01:03:32;3.10;70.60
56538;DHT22;42435;53.292;6.000;2023-04-03T01:05:58;3.10;70.60
56538;DHT22;42435;53.292;6.000;2023-04-03T01:08:24;3.00;70.70
56538;DHT22;42435;53.292;6.000;2023-04-03T01:10:49;3.00;70.80
56538;DHT22;42435;53.292;6.000;2023-04-03T01:13:28;2.90;70.80
56538;DHT22;42435;53.292;6.000;2023-04-03T01:15:54;2.90;71.10
56538;DHT22;42435;53.292;6.000;2023-04-03T01:18:20;2.90;71.00
56538;DHT22;42435;53.292;6.000;2023-04-03T01:26:21;2.70;71.40
56538;DHT22;42435;53.292;6.000;2023-04-03T01:28:53;2.70;71.30
56538;DHT22;42435;53.292;6.000;2023-04-03T01:31:26;2.70;71.40
56538;DHT22;42435;53.292;6.000;2023-04-03T01:33:52;2.70;71.40
56538;DHT22;42435;53.292;6.000;2023-04-03T01:36:24;2.60;71.50
56538;DHT22;42435;53.292;6.000;2023-04-03T01:38:52;2.60;71.50
56538;DHT22;42435;53.292;6.000;2023-04-03T01:41:18;2.60;71.50
56538;DHT22;42435;53.292;6.000;2023-04-03T01:43:43;2.60;71.60
56538;DHT22;42435;53.292;6.000;2023-04-03T01:46:11;2.60;71.60
56538;DHT22;42435;53.292;6.000;2023-04-03T01:48:38;2.50;71.60
56538;DHT22;42435;53.292;6.000;2023-04-03T01:51:06;2.50;71.60
56538;DHT22;42435;53.292;6.000;2023-04-03T01:53:32;2.50;71.60
56538;DHT22;42435;53.292;6.000;2023-04-03T01:55:58;2.40;71.50
56538;DHT22;42435;53.292;6.000;2023-04-03T01:58:23;2.40;71.60
56538;DHT22;42435;53.292;6.000;2023-04-03T02:00:49;2.40;71.60
56538;DHT22;42435;53.292;6.000;2023-04-03T02:03:15;2.40;71.60
56538;DHT22;42435;53.292;6.000;2023-04-03T02:05:40;2.30;71.60
56538;DHT22;42435;53.292;6.000;2023-04-03T02:08:06;2.30;71.70
56538;DHT22;42435;53.292;6.000;2023-04-03T02:10:32;2.30;71.70
56538;DHT22;42435;53.292;6.000;2023-04-03T02:12:57;2.30;71.70
56538;DHT22;42435;53.292;6.000;2023-04-03T02:15:23;2.20;71.80
56538;DHT22;42435;53.292;6.000;2023-04-03T02:17:49;2.20;71.80
56538;DHT22;42435;53.292;6.000;2023-04-03T02:20:14;2.20;71.80
56538;DHT22;42435;53.292;6.000;2023-04-03T02:22:40;2.20;71.90
56538;DHT22;42435;53.292;6.000;2023-04-03T02:25:06;2.10;71.90
56538;DHT22;42435;53.292;6.000;2023-04-03T02:27:32;2.20;72.00
56538;DHT22;42435;53.292;6.000;2023-04-03T02:29:57;2.10;72.00
56538;DHT22;42435;53.292;6.000;2023-04-03T02:32:23;2.10;72.00
56538;DHT22;42435;53.292;6.000;2023-04-03T02:34:52;2.10;72.10
56538;DHT22;42435;53.292;6.000;2023-04-03T02:37:17;2.10;72.20
56538;DHT22;42435;53.292;6.000;2023-04-03T02:39:43;2.10;72.30
56538;DHT22;42435;53.292;6.000;2023-04-03T02:42:08;2.00;72.30
56538;DHT22;42435;53.292;6.000;2023-04-03T02:44:34;2.00;72.30
56538;DHT22;42435;53.292;6.000;2023-04-03T02:47:01;2.00;72.40
56538;DHT22;42435;53.292;6.000;2023-04-03T02:49:26;2.00;72.50
56538;DHT22;42435;53.292;6.000;2023-04-03T02:51:52;2.00;72.50
56538;DHT22;42435;53.292;6.000;2023-04-03T02:54:18;1.90;72.50
56538;DHT22;42435;53.292;6.000;2023-04-03T02:56:43;1.90;72.60
56538;DHT22;42435;53.292;6.000;2023-04-03T02:59:09;1.90;72.60
56538;DHT22;42435;53.292;6.000;2023-04-03T03:01:34;1.90;72.70
56538;DHT22;42435;53.292;6.000;2023-04-03T03:04:01;1.90;72.80
56538;DHT22;42435;53.292;6.000;2023-04-03T03:06:27;1.90;72.90
56538;DHT22;42435;53.292;6.000;2023-04-03T03:08:53;1.90;72.90
56538;DHT22;42435;53.292;6.000;2023-04-03T03:11:19;1.80;73.00
56538;DHT22;42435;53.292;6.000;2023-04-03T03:13:45;1.80;73.10
56538;DHT22;42435;53.292;6.000;2023-04-03T03:16:13;1.80;73.10
56538;DHT22;42435;53.292;6.000;2023-04-03T03:18:41;1.70;73.30
56538;DHT22;42435;53.292;6.000;2023-04-03T03:21:09;1.80;73.30
56538;DHT22;42435;53.292;6.000;2023-04-03T03:23:35;1.70;73.40
56538;DHT22;42435;53.292;6.000;2023-04-03T03:26:04;1.70;73.40
56538;DHT22;42435;53.292;6.000;2023-04-03T03:28:33;1.60;73.40
56538;DHT22;42435;53.292;6.000;2023-04-03T03:30:59;1.70;73.50
56538;DHT22;42435;53.292;6.000;2023-04-03T03:33:26;1.60;73.50
56538;DHT22;42435;53.292;6.000;2023-04-03T03:35:53;1.60;73.50
56538;DHT22;42435;53.292;6.000;2023-04-03T03:38:18;1.60;73.50
56538;DHT22;42435;53.292;6.000;2023-04-03T03:40:44;1.60;73.50
56538;DHT22;42435;53.292;6.000;2023-04-03T03:43:10;1.50;73.60
56538;DHT22;42435;53.292;6.000;2023-04-03T03:45:39;1.50;73.60
56538;DHT22;42435;53.292;6.000;2023-04-03T03:48:04;1.50;73.70
56538;DHT22;42435;53.292;6.000;2023-04-03T03:50:31;1.50;73.80
56538;DHT22;42435;53.292;6.000;2023-04-03T03:52:56;1.50;73.90
56538;DHT22;42435;53.292;6.000;2023-04-03T03:55:22;1.40;73.90
56538;DHT22;42435;53.292;6.000;2023-04-03T03:57:48;1.50;74.00
56538;DHT22;42435;53.292;6.000;2023-04-03T04:00:14;1.40;74.00
56538;DHT22;42435;53.292;6.000;2023-04-03T04:02:40;1.40;74.00
56538;DHT22;42435;53.292;6.000;2023-04-03T04:05:06;1.40;74.10
56538;DHT22;42435;53.292;6.000;2023-04-03T04:07:32;1.40;74.20
56538;DHT22;42435;53.292;6.000;2023-04-03T04:09:57;1.40;74.20
56538;DHT22;42435;53.292;6.000;2023-04-03T04:12:23;1.30;74.20
56538;DHT22;42435;53.292;6.000;2023-04-03T04:14:48;1.30;74.30
56538;DHT22;42435;53.292;6.000;2023-04-03T04:17:14;1.30;74.30
56538;DHT22;42435;53.292;6.000;2023-04-03T04:19:40;1.30;74.40
56538;DHT22;42435;53.292;6.000;2023-04-03T04:22:05;1.30;74.40
56538;DHT22;42435;53.292;6.000;2023-04-03T04:24:31;1.20;74.40
56538;DHT22;42435;53.292;6.000;2023-04-03T04:26:57;1.20;74.40
56538;DHT22;42435;53.292;6.000;2023-04-03T04:29:22;1.20;74.40
56538;DHT22;42435;53.292;6.000;2023-04-03T04:31:48;1.20;74.40
56538;DHT22;42435;53.292;6.000;2023-04-03T04:34:20;1.10;74.40
56538;DHT22;42435;53.292;6.000;2023-04-03T04:36:48;1.10;74.50
56538;DHT22;42435;53.292;6.000;2023-04-03T04:39:14;1.10;74.50
56538;DHT22;42435;53.292;6.000;2023-04-03T04:41:40;1.00;74.60
56538;DHT22;42435;53.292;6.000;2023-04-03T04:44:05;1.00;74.60
56538;DHT22;42435;53.292;6.000;2023-04-03T04:46:31;1.00;74.70
56538;DHT22;42435;53.292;6.000;2023-04-03T04:48:57;1.00;74.80
56538;DHT22;42435;53.292;6.000;2023-04-03T04:51:22;1.00;74.90
56538;DHT22;42435;53.292;6.000;2023-04-03T04:53:48;1.00;75.00
56538;DHT22;42435;53.292;6.000;2023-04-03T04:56:14;1.00;75.00
56538;DHT22;42435;53.292;6.000;2023-04-03T04:58:39;1.00;75.00
56538;DHT22;42435;53.292;6.000;2023-04-03T05:01:07;0.90;75.10
56538;DHT22;42435;53.292;6.000;2023-04-03T05:03:34;1.00;75.10
56538;DHT22;42435;53.292;6.000;2023-04-03T05:05:59;1.00;75.10
56538;DHT22;42435;53.292;6.000;2023-04-03T05:08:25;1.00;75.20
56538;DHT22;42435;53.292;6.000;2023-04-03T05:10:54;1.00;75.30
56538;DHT22;42435;53.292;6.000;2023-04-03T05:13:20;0.90;75.30
56538;DHT22;42435;53.292;6.000;2023-04-03T05:15:46;0.90;75.30
56538;DHT22;42435;53.292;6.000;2023-04-03T05:18:12;0.90;75.30
56538;DHT22;42435;53.292;6.000;2023-04-03T05:20:38;0.90;75.40
56538;DHT22;42435;53.292;6.000;2023-04-03T05:23:07;0.90;75.40
56538;DHT22;42435;53.292;6.000;2023-04-03T05:25:32;0.90;75.40
56538;DHT22;42435;53.292;6.000;2023-04-03T05:27:58;0.90;75.40
56538;DHT22;42435;53.292;6.000;2023-04-03T05:30:24;0.90;75.50
56538;DHT22;42435;53.292;6.000;2023-04-03T05:32:49;0.90;75.50
56538;DHT22;42435;53.292;6.000;2023-04-03T05:35:15;0.90;75.60
56538;DHT22;42435;53.292;6.000;2023-04-03T05:37:41;0.90;75.70
56538;DHT22;42435;53.292;6.000;2023-04-03T05:40:07;0.90;75.70
56538;DHT22;42435;53.292;6.000;2023-04-03T05:42:33;0.90;75.80
56538;DHT22;42435;53.292;6.000;2023-04-03T05:45:02;0.90;75.80
56538;DHT22;42435;53.292;6.000;2023-04-03T05:47:28;1.00;75.90
56538;DHT22;42435;53.292;6.000;2023-04-03T05:49:53;1.00;75.90
56538;DHT22;42435;53.292;6.000;2023-04-03T05:52:29;1.00;76.00
56538;DHT22;42435;53.292;6.000;2023-04-03T05:54:55;1.00;76.00
56538;DHT22;42435;53.292;6.000;2023-04-03T05:57:21;1.00;76.00
56538;DHT22;42435;53.292;6.000;2023-04-03T05:59:47;1.10;76.10
56538;DHT22;42435;53.292;6.000;2023-04-03T06:02:18;1.10;76.10
56538;DHT22;42435;53.292;6.000;2023-04-03T06:04:44;1.10;76.20
56538;DHT22;42435;53.292;6.000;2023-04-03T06:07:16;1.20;76.20
56538;DHT22;42435;53.292;6.000;2023-04-03T06:09:43;1.30;76.20
56538;DHT22;42435;53.292;6.000;2023-04-03T06:12:12;1.40;76.20
56538;DHT22;42435;53.292;6.000;2023-04-03T06:14:37;1.50;76.30
56538;DHT22;42435;53.292;6.000;2023-04-03T06:17:03;1.60;76.40
56538;DHT22;42435;53.292;6.000;2023-04-03T06:19:29;1.70;76.40
56538;DHT22;42435;53.292;6.000;2023-04-03T06:21:56;1.90;76.30
56538;DHT22;42435;53.292;6.000;2023-04-03T06:24:22;2.00;76.30
56538;DHT22;42435;53.292;6.000;2023-04-03T06:26:51;2.20;76.10
56538;DHT22;42435;53.292;6.000;2023-04-03T06:29:21;2.40;75.80
56538;DHT22;42435;53.292;6.000;2023-04-03T06:31:47;2.50;75.70
56538;DHT22;42435;53.292;6.000;2023-04-03T06:34:12;2.70;75.50
56538;DHT22;42435;53.292;6.000;2023-04-03T06:36:39;2.70;75.20
56538;DHT22;42435;53.292;6.000;2023-04-03T06:39:05;2.80;74.90
56538;DHT22;42435;53.292;6.000;2023-04-03T06:41:32;2.80;74.90
56538;DHT22;42435;53.292;6.000;2023-04-03T06:43:58;2.90;74.70
56538;DHT22;42435;53.292;6.000;2023-04-03T06:46:25;3.00;74.50
56538;DHT22;42435;53.292;6.000;2023-04-03T06:48:52;3.20;74.40
56538;DHT22;42435;53.292;6.000;2023-04-03T06:51:21;3.30;74.30
56538;DHT22;42435;53.292;6.000;2023-04-03T06:53:58;3.40;74.10
56538;DHT22;42435;53.292;6.000;2023-04-03T06:56:27;3.50;73.70
56538;DHT22;42435;53.292;6.000;2023-04-03T06:58:57;3.60;73.60
56538;DHT22;42435;53.292;6.000;2023-04-03T07:01:28;3.70;73.40
56538;DHT22;42435;53.292;6.000;2023-04-03T07:03:53;3.90;73.20
56538;DHT22;42435;53.292;6.000;2023-04-03T07:06:19;4.00;73.10
56538;DHT22;42435;53.292;6.000;2023-04-03T07:08:46;4.20;72.80
56538;DHT22;42435;53.292;6.000;2023-04-03T07:11:13;4.30;72.60
56538;DHT22;42435;53.292;6.000;2023-04-03T07:13:42;4.40;72.30
56538;DHT22;42435;53.292;6.000;2023-04-03T07:16:08;4.60;72.00
56538;DHT22;42435;53.292;6.000;2023-04-03T07:18:34;4.70;71.70
56538;DHT22;42435;53.292;6.000;2023-04-03T07:21:00;4.70;71.20
56538;DHT22;42435;53.292;6.000;2023-04-03T07:23:26;4.80;70.90
56538;DHT22;42435;53.292;6.000;2023-04-03T07:25:52;5.00;70.60
56538;DHT22;42435;53.292;6.000;2023-04-03T07:28:19;5.00;70.00
56538;DHT22;42435;53.292;6.000;2023-04-03T07:30:53;5.10;69.30
56538;DHT22;42435;53.292;6.000;2023-04-03T07:33:22;5.10;69.20
56538;DHT22;42435;53.292;6.000;2023-04-03T07:35:48;5.30;68.90
56538;DHT22;42435;53.292;6.000;2023-04-03T07:38:14;5.30;68.30
56538;DHT22;42435;53.292;6.000;2023-04-03T07:40:40;5.40;68.00
56538;DHT22;42435;53.292;6.000;2023-04-03T07:43:10;5.50;67.90
56538;DHT22;42435;53.292;6.000;2023-04-03T07:45:36;5.60;67.40
56538;DHT22;42435;53.292;6.000;2023-04-03T07:48:05;5.60;67.00
56538;DHT22;42435;53.292;6.000;2023-04-03T07:50:33;5.60;66.70
56538;DHT22;42435;53.292;6.000;2023-04-03T07:52:59;5.70;66.20
56538;DHT22;42435;53.292;6.000;2023-04-03T07:55:25;5.80;66.40
56538;DHT22;42435;53.292;6.000;2023-04-03T07:57:51;6.00;66.50
56538;DHT22;42435;53.292;6.000;2023-04-03T08:00:17;6.20;66.10
56538;DHT22;42435;53.292;6.000;2023-04-03T08:02:43;6.30;65.90
56538;DHT22;42435;53.292;6.000;2023-04-03T08:05:10;6.50;65.30
56538;DHT22;42435;53.292;6.000;2023-04-03T08:07:37;6.70;65.10
56538;DHT22;42435;53.292;6.000;2023-04-03T08:10:03;6.80;64.70
56538;DHT22;42435;53.292;6.000;2023-04-03T08:12:29;6.90;64.50
56538;DHT22;42435;53.292;6.000;2023-04-03T08:14:55;7.10;64.40
56538;DHT22;42435;53.292;6.000;2023-04-03T08:17:30;7.20;64.10
56538;DHT22;42435;53.292;6.000;2023-04-03T08:19:56;7.40;63.20
56538;DHT22;42435;53.292;6.000;2023-04-03T08:22:21;7.50;63.10
56538;DHT22;42435;53.292;6.000;2023-04-03T08:24:47;7.50;62.90
56538;DHT22;42435;53.292;6.000;2023-04-03T08:27:13;7.70;62.60
56538;DHT22;42435;53.292;6.000;2023-04-03T08:29:39;7.90;61.90
56538;DHT22;42435;53.292;6.000;2023-04-03T08:32:05;7.90;61.00
56538;DHT22;42435;53.292;6.000;2023-04-03T08:34:31;7.90;60.80
56538;DHT22;42435;53.292;6.000;2023-04-03T08:37:00;8.00;60.30
56538;DHT22;42435;53.292;6.000;2023-04-03T08:39:26;8.00;60.00
56538;DHT22;42435;53.292;6.000;2023-04-03T08:41:53;8.10;59.90
56538;DHT22;42435;53.292;6.000;2023-04-03T08:44:47;8.20;59.70
56538;DHT22;42435;53.292;6.000;2023-04-03T08:49:46;8.40;58.90
56538;DHT22;42435;53.292;6.000;2023-04-03T08:52:35;8.60;58.70
56538;DHT22;42435;53.292;6.000;2023-04-03T08:55:05;8.80;58.00
56538;DHT22;42435;53.292;6.000;2023-04-03T08:57:38;9.00;57.20
56538;DHT22;42435;53.292;6.000;2023-04-03T09:00:16;8.90;56.40
56538;DHT22;42435;53.292;6.000;2023-04-03T09:02:52;9.00;56.10
56538;DHT22;42435;53.292;6.000;2023-04-03T09:08:12;9.20;54.90
56538;DHT22;42435;53.292;6.000;2023-04-03T09:10:45;9.30;54.60
56538;DHT22;42435;53.292;6.000;2023-04-03T09:16:19;9.40;52.50
56538;DHT22;42435;53.292;6.000;2023-04-03T09:18:51;9.40;52.50
56538;DHT22;42435;53.292;6.000;2023-04-03T09:21:39;9.50;52.80
56538;DHT22;42435;53.292;6.000;2023-04-03T09:24:10;9.60;52.40
56538;DHT22;42435;53.292;6.000;2023-04-03T09:26:48;9.70;52.50
56538;DHT22;42435;53.292;6.000;2023-04-03T09:29:20;9.80;51.00
56538;DHT22;42435;53.292;6.000;2023-04-03T09:31:49;10.00;51.20
56538;DHT22;42435;53.292;6.000;2023-04-03T09:34:26;10.10;50.90
56538;DHT22;42435;53.292;6.000;2023-04-03T09:36:57;10.20;50.30
56538;DHT22;42435;53.292;6.000;2023-04-03T09:39:25;10.40;50.20
56538;DHT22;42435;53.292;6.000;2023-04-03T09:42:06;10.50;48.40
56538;DHT22;42435;53.292;6.000;2023-04-03T09:44:39;10.60;48.80
56538;DHT22;42435;53.292;6.000;2023-04-03T09:47:19;10.70;49.40
56538;DHT22;42435;53.292;6.000;2023-04-03T09:49:50;10.90;47.70
56538;DHT22;42435;53.292;6.000;2023-04-03T09:52:23;11.00;48.10
56538;DHT22;42435;53.292;6.000;2023-04-03T09:54:49;11.10;47.40
56538;DHT22;42435;53.292;6.000;2023-04-03T09:57:15;11.20;47.10
56538;DHT22;42435;53.292;6.000;2023-04-03T09:59:47;11.30;47.30
56538;DHT22;42435;53.292;6.000;2023-04-03T10:02:30;11.50;46.90
56538;DHT22;42435;53.292;6.000;2023-04-03T10:04:57;11.70;45.90
56538;DHT22;42435;53.292;6.000;2023-04-03T10:07:37;11.80;45.00
56538;DHT22;42435;53.292;6.000;2023-04-03T10:10:23;11.80;43.90
56538;DHT22;42435;53.292;6.000;2023-04-03T10:13:19;11.70;43.50
56538;DHT22;42435;53.292;6.000;2023-04-03T10:15:52;11.70;43.60
56538;DHT22;42435;53.292;6.000;2023-04-03T10:18:27;11.80;44.10
56538;DHT22;42435;53.292;6.000;2023-04-03T10:21:02;11.90;43.90
56538;DHT22;42435;53.292;6.000;2023-04-03T10:23:50;12.00;42.70
56538;DHT22;42435;53.292;6.000;2023-04-03T10:26:45;11.90;41.80
56538;DHT22;42435;53.292;6.000;2023-04-03T10:29:43;11.90;41.30
56538;DHT22;42435;53.292;6.000;2023-04-03T10:32:23;11.80;41.90
56538;DHT22;42435;53.292;6.000;2023-04-03T10:35:18;11.90;42.90
56538;DHT22;42435;53.292;6.000;2023-04-03T10:38:04;11.90;41.70
56538;DHT22;42435;53.292;6.000;2023-04-03T10:40:44;12.00;41.70
56538;DHT22;42435;53.292;6.000;2023-04-03T10:43:40;12.20;41.50
56538;DHT22;42435;53.292;6.000;2023-04-03T10:46:23;12.30;40.00
56538;DHT22;42435;53.292;6.000;2023-04-03T10:49:19;12.20;40.00
56538;DHT22;42435;53.292;6.000;2023-04-03T10:54:46;12.50;39.80
56538;DHT22;42435;53.292;6.000;2023-04-03T10:57:18;12.60;39.60
56538;DHT22;42435;53.292;6.000;2023-04-03T10:59:50;12.80;39.50
56538;DHT22;42435;53.292;6.000;2023-04-03T11:02:27;12.80;38.50
56538;DHT22;42435;53.292;6.000;2023-04-03T11:05:03;12.70;38.60
56538;DHT22;42435;53.292;6.000;2023-04-03T11:07:38;12.60;39.80
56538;DHT22;42435;53.292;6.000;2023-04-03T11:10:24;12.80;40.30
56538;DHT22;42435;53.292;6.000;2023-04-03T11:13:21;12.90;39.10
56538;DHT22;42435;53.292;6.000;2023-04-03T11:15:49;12.90;37.80
56538;DHT22;42435;53.292;6.000;2023-04-03T11:18:22;12.70;37.90
56538;DHT22;42435;53.292;6.000;2023-04-03T11:21:02;12.60;37.00
56538;DHT22;42435;53.292;6.000;2023-04-03T11:23:35;12.50;37.20
56538;DHT22;42435;53.292;6.000;2023-04-03T11:26:11;12.60;37.90
56538;DHT22;42435;53.292;6.000;2023-04-03T11:28:37;12.70;37.20
56538;DHT22;42435;53.292;6.000;2023-04-03T11:31:31;12.70;37.10
56538;DHT22;42435;53.292;6.000;2023-04-03T11:34:34;12.60;36.50
56538;DHT22;42435;53.292;6.000;2023-04-03T11:37:05;12.40;36.30
56538;DHT22;42435;53.292;6.000;2023-04-03T11:39:37;12.30;36.60
56538;DHT22;42435;53.292;6.000;2023-04-03T11:42:42;12.30;36.90
56538;DHT22;42435;53.292;6.000;2023-04-03T11:45:23;12.40;36.30
56538;DHT22;42435;53.292;6.000;2023-04-03T11:47:58;12.30;36.70
56538;DHT22;42435;53.292;6.000;2023-04-03T11:55:58;12.60;37.00
56538;DHT22;42435;53.292;6.000;2023-04-03T11:58:32;12.70;37.40
56538;DHT22;42435;53.292;6.000;2023-04-03T12:01:07;12.80;36.30
56538;DHT22;42435;53.292;6.000;2023-04-03T12:03:56;12.80;36.50
56538;DHT22;42435;53.292;6.000;2023-04-03T12:08:54;12.80;36.00
56538;DHT22;42435;53.292;6.000;2023-04-03T12:11:28;12.80;36.20
56538;DHT22;42435;53.292;6.000;2023-04-03T12:16:30;12.90;36.50
56538;DHT22;42435;53.292;6.000;2023-04-03T12:19:04;12.90;36.10
56538;DHT22;42435;53.292;6.000;2023-04-03T12:29:34;12.90;35.80
56538;DHT22;42435;53.292;6.000;2023-04-03T12:45:47;12.50;36.10
56538;DHT22;42435;53.292;6.000;2023-04-03T12:48:17;12.60;36.90
56538;DHT22;42435;53.292;6.000;2023-04-03T12:50:48;12.60;37.00
56538;DHT22;42435;53.292;6.000;2023-04-03T12:53:28;12.70;36.80
56538;DHT22;42435;53.292;6.000;2023-04-03T12:56:24;12.80;36.60
56538;DHT22;42435;53.292;6.000;2023-04-03T12:59:13;12.90;35.70
56538;DHT22;42435;53.292;6.000;2023-04-03T13:01:39;12.90;35.80
56538;DHT22;42435;53.292;6.000;2023-04-03T13:04:05;12.90;36.10
56538;DHT22;42435;53.292;6.000;2023-04-03T13:06:43;12.90;36.00
56538;DHT22;42435;53.292;6.000;2023-04-03T13:09:24;12.90;36.70
56538;DHT22;42435;53.292;6.000;2023-04-03T13:11:56;12.90;35.90
56538;DHT22;42435;53.292;6.000;2023-04-03T13:14:25;12.80;36.30
56538;DHT22;42435;53.292;6.000;2023-04-03T13:16:59;12.90;36.40
56538;DHT22;42435;53.292;6.000;2023-04-03T13:19:27;12.90;36.40
56538;DHT22;42435;53.292;6.000;2023-04-03T13:24:29;12.90;36.60
56538;DHT22;42435;53.292;6.000;2023-04-03T13:26:56;12.90;36.70
56538;DHT22;42435;53.292;6.000;2023-04-03T13:29:25;12.90;36.30
56538;DHT22;42435;53.292;6.000;2023-04-03T13:31:54;13.00;36.40
56538;DHT22;42435;53.292;6.000;2023-04-03T13:34:22;13.00;35.80
56538;DHT22;42435;53.292;6.000;2023-04-03T13:39:22;12.80;35.90
56538;DHT22;42435;53.292;6.000;2023-04-03T13:41:59;12.80;35.80
56538;DHT22;42435;53.292;6.000;2023-04-03T13:44:33;12.70;35.60
56538;DHT22;42435;53.292;6.000;2023-04-03T13:47:20;12.70;35.80
56538;DHT22;42435;53.292;6.000;2023-04-03T13:50:01;12.80;36.20
56538;DHT22;42435;53.292;6.000;2023-04-03T13:52:53;12.80;35.80
56538;DHT22;42435;53.292;6.000;2023-04-03T13:57:57;12.80;35.80
56538;DHT22;42435;53.292;6.000;2023-04-03T14:03:59;12.70;35.50
56538;DHT22;42435;53.292;6.000;2023-04-03T14:05:59;12.60;35.70
56538;DHT22;42435;53.292;6.000;2023-04-03T14:08:27;12.60;36.70
56538;DHT22;42435;53.292;6.000;2023-04-03T14:10:53;12.60;36.30
56538;DHT22;42435;53.292;6.000;2023-04-03T14:13:20;12.60;36.60
56538;DHT22;42435;53.292;6.000;2023-04-03T14:15:47;12.50;36.80
56538;DHT22;42435;53.292;6.000;2023-04-03T14:18:16;12.50;37.30
56538;DHT22;42435;53.292;6.000;2023-04-03T14:20:47;12.50;37.20
56538;DHT22;42435;53.292;6.000;2023-04-03T14:23:13;12.50;37.20
56538;DHT22;42435;53.292;6.000;2023-04-03T14:25:39;12.50;37.70
56538;DHT22;42435;53.292;6.000;2023-04-03T14:28:19;12.50;38.10
56538;DHT22;42435;53.292;6.000;2023-04-03T14:30:47;12.60;39.10
56538;DHT22;42435;53.292;6.000;2023-04-03T14:33:15;12.60;39.90
56538;DHT22;42435;53.292;6.000;2023-04-03T14:35:45;12.60;40.30
56538;DHT22;42435;53.292;6.000;2023-04-03T14:38:24;12.50;40.40
56538;DHT22;42435;53.292;6.000;2023-04-03T14:40:50;12.40;40.70
56538;DHT22;42435;53.292;6.000;2023-04-03T14:43:16;12.20;41.20
56538;DHT22;42435;53.292;6.000;2023-04-03T14:45:43;12.10;41.80
56538;DHT22;42435;53.292;6.000;2023-04-03T14:48:15;11.90;42.10
56538;DHT22;42435;53.292;6.000;2023-04-03T14:50:42;11.80;42.20
56538;DHT22;42435;53.292;6.000;2023-04-03T14:53:07;11.60;42.50
56538;DHT22;42435;53.292;6.000;2023-04-03T14:55:35;11.50;42.70
56538;DHT22;42435;53.292;6.000;2023-04-03T14:58:02;11.30;43.20
56538;DHT22;42435;53.292;6.000;2023-04-03T15:00:28;11.20;43.60
56538;DHT22;42435;53.292;6.000;2023-04-03T15:02:53;11.00;44.20
56538;DHT22;42435;53.292;6.000;2023-04-03T15:05:19;11.00;44.60
56538;DHT22;42435;53.292;6.000;2023-04-03T15:07:49;10.90;45.00
56538;DHT22;42435;53.292;6.000;2023-04-03T15:10:27;10.90;45.10
56538;DHT22;42435;53.292;6.000;2023-04-03T15:12:53;10.80;45.10
56538;DHT22;42435;53.292;6.000;2023-04-03T15:15:20;10.70;45.20
56538;DHT22;42435;53.292;6.000;2023-04-03T15:17:51;10.60;45.30
56538;DHT22;42435;53.292;6.000;2023-04-03T15:20:21;10.40;45.20
56538;DHT22;42435;53.292;6.000;2023-04-03T15:22:47;10.30;45.20
56538;DHT22;42435;53.292;6.000;2023-04-03T15:25:13;10.30;44.70
56538;DHT22;42435;53.292;6.000;2023-04-03T15:27:39;10.20;44.70
56538;DHT22;42435;53.292;6.000;2023-04-03T15:30:07;10.20;44.60
56538;DHT22;42435;53.292;6.000;2023-04-03T15:32:33;10.20;44.50
56538;DHT22;42435;53.292;6.000;2023-04-03T15:35:00;10.10;44.40
56538;DHT22;42435;53.292;6.000;2023-04-03T15:37:26;10.10;43.50
56538;DHT22;42435;53.292;6.000;2023-04-03T15:39:52;10.00;43.50
56538;DHT22;42435;53.292;6.000;2023-04-03T15:42:18;10.00;43.60
56538;DHT22;42435;53.292;6.000;2023-04-03T15:44:43;9.90;43.50
56538;DHT22;42435;53.292;6.000;2023-04-03T15:47:09;9.90;43.90
56538;DHT22;42435;53.292;6.000;2023-04-03T15:49:35;9.90;44.10
56538;DHT22;42435;53.292;6.000;2023-04-03T15:52:01;9.90;43.80
56538;DHT22;42435;53.292;6.000;2023-04-03T15:54:27;9.80;44.00
56538;DHT22;42435;53.292;6.000;2023-04-03T15:56:55;9.80;44.10
56538;DHT22;42435;53.292;6.000;2023-04-03T15:59:20;9.70;43.80
56538;DHT22;42435;53.292;6.000;2023-04-03T16:01:46;9.60;43.80
56538;DHT22;42435;53.292;6.000;2023-04-03T16:04:12;9.60;44.50
56538;DHT22;42435;53.292;6.000;2023-04-03T16:06:38;9.60;44.90
56538;DHT22;42435;53.292;6.000;2023-04-03T16:09:04;9.70;44.30
56538;DHT22;42435;53.292;6.000;2023-04-03T16:11:31;9.60;44.20
56538;DHT22;42435;53.292;6.000;2023-04-03T16:13:57;9.50;44.30
56538;DHT22;42435;53.292;6.000;2023-04-03T16:16:24;9.40;44.70
56538;DHT22;42435;53.292;6.000;2023-04-03T16:18:56;9.50;45.00
56538;DHT22;42435;53.292;6.000;2023-04-03T16:21:22;9.40;45.10
56538;DHT22;42435;53.292;6.000;2023-04-03T16:23:48;9.30;45.50
56538;DHT22;42435;53.292;6.000;2023-04-03T16:26:14;9.20;46.10
56538;DHT22;42435;53.292;6.000;2023-04-03T16:28:40;9.20;46.80
56538;DHT22;42435;53.292;6.000;2023-04-03T16:31:07;9.10;47.20
56538;DHT22;42435;53.292;6.000;2023-04-03T16:33:33;9.00;47.30
56538;DHT22;42435;53.292;6.000;2023-04-03T16:36:06;8.90;47.40
56538;DHT22;42435;53.292;6.000;2023-04-03T16:38:31;8.90;47.70
56538;DHT22;42435;53.292;6.000;2023-04-03T16:40:57;8.90;47.70
56538;DHT22;42435;53.292;6.000;2023-04-03T16:43:28;8.80;47.90
56538;DHT22;42435;53.292;6.000;2023-04-03T16:45:53;8.70;48.30
56538;DHT22;42435;53.292;6.000;2023-04-03T16:48:19;8.70;48.70
56538;DHT22;42435;53.292;6.000;2023-04-03T16:50:49;8.60;48.80
56538;DHT22;42435;53.292;6.000;2023-04-03T16:53:18;8.50;48.80
56538;DHT22;42435;53.292;6.000;2023-04-03T16:55:44;8.50;49.10